Aviation Digital Data Service (ADDS)

Output produced by TAFs form (1914 UTC 30 July 2014)
found at http://aviationweather.gov/adds/tafs/
 
KDMN 301759Z 3018/3118 28008G16KT P6SM FEW060 SCT120 SCT250 
     FM310000 30011KT P6SM VCTS SCT070CB SCT120 SCT250 
     FM311200 08012KT P6SM VCTS SCT060CB BKN120 BKN250